Time;durP1;ratioP1;P1;durP2;ratioP2;P2;SDS_P1;SDS_P2;PMS_P1;PMS_P2;Temp;Humidity;BMP_temperature;BMP_pressure;BME280_temperature;BME280_humidity;BME280_pressure;Samples;Min_cycle;Max_cycle;Signal;HPM_P1;HPM_P2
2023/09/27 00:00:43;;;;;;;32.72;23.90;;;15.30;99.90;;;;;;2083344;28;20036;-68
2023/09/27 00:01:44;;;;;;;32.17;24.23;;;15.30;99.90;;;;;;2084833;28;20488;-69
2023/09/27 00:02:46;;;;;;;29.08;23.27;;;15.30;99.90;;;;;;2082662;28;20496;-70
2023/09/27 00:03:47;;;;;;;29.90;23.83;;;15.30;99.90;;;;;;2084379;28;20029;-69
2023/09/27 00:04:48;;;;;;;31.60;23.63;;;15.30;99.90;;;;;;2084767;28;20083;-68
2023/09/27 00:05:48;;;;;;;30.08;22.60;;;15.30;99.90;;;;;;2086028;28;20025;-68
2023/09/27 00:06:50;;;;;;;32.22;24.17;;;15.30;99.90;;;;;;2083703;28;20032;-68
2023/09/27 00:07:54;;;;;;;31.55;23.50;;;15.30;99.90;;;;;;2081597;28;20037;-70
2023/09/27 00:08:54;;;;;;;32.25;23.58;;;15.30;99.90;;;;;;2083261;28;20111;-70
2023/09/27 00:09:55;;;;;;;30.30;23.48;;;15.30;99.90;;;;;;2083202;28;20099;-70
2023/09/27 00:10:57;;;;;;;30.90;23.38;;;15.30;99.90;;;;;;2085667;28;20025;-69
2023/09/27 00:11:58;;;;;;;30.92;23.65;;;15.30;99.90;;;;;;2087595;28;20028;-70
2023/09/27 00:12:59;;;;;;;31.52;24.27;;;15.20;99.90;;;;;;2088338;28;20032;-70
2023/09/27 00:14:00;;;;;;;31.60;23.88;;;15.20;99.90;;;;;;2087128;28;20040;-72
2023/09/27 00:15:01;;;;;;;31.38;23.65;;;15.20;99.90;;;;;;2091071;28;20020;-72
2023/09/27 00:16:02;;;;;;;31.33;23.52;;;15.20;99.90;;;;;;2091765;28;20600;-72
2023/09/27 00:17:03;;;;;;;28.92;23.33;;;15.20;99.90;;;;;;2090862;28;20190;-71
2023/09/27 00:18:04;;;;;;;29.85;22.95;;;15.10;99.90;;;;;;2092191;28;20024;-71
2023/09/27 00:19:05;;;;;;;28.65;22.92;;;15.10;99.90;;;;;;2088268;28;20557;-70
2023/09/27 00:20:10;;;;;;;30.98;23.33;;;15.20;99.90;;;;;;2091238;28;20036;-70
2023/09/27 00:21:11;;;;;;;30.27;22.85;;;15.20;99.90;;;;;;2086247;28;20032;-71
2023/09/27 00:22:11;;;;;;;29.00;23.80;;;15.20;99.90;;;;;;2085229;28;20033;-70
2023/09/27 00:23:12;;;;;;;32.78;23.98;;;15.20;99.90;;;;;;2090517;28;20036;-71
2023/09/27 00:24:13;;;;;;;32.70;23.67;;;15.10;99.90;;;;;;2090123;28;20040;-71
2023/09/27 00:25:14;;;;;;;31.95;23.85;;;15.10;99.90;;;;;;2083946;28;20508;-71
2023/09/27 00:26:15;;;;;;;31.80;23.95;;;15.10;99.90;;;;;;2087847;28;20048;-71
2023/09/27 00:27:17;;;;;;;30.83;24.02;;;15.10;99.90;;;;;;2085027;28;20025;-71
2023/09/27 00:28:18;;;;;;;32.88;23.25;;;15.10;99.90;;;;;;2076538;28;20378;-71
2023/09/27 00:29:18;;;;;;;28.88;23.33;;;15.10;99.90;;;;;;2075082;28;20067;-71
2023/09/27 00:30:19;;;;;;;29.90;23.17;;;15.00;99.90;;;;;;2085485;28;20531;-71
2023/09/27 00:31:19;;;;;;;32.60;24.13;;;15.00;99.90;;;;;;2089772;28;20086;-70
2023/09/27 00:32:20;;;;;;;28.42;22.52;;;15.00;99.90;;;;;;2090087;28;20043;-70
2023/09/27 00:33:20;;;;;;;31.63;23.77;;;15.00;99.90;;;;;;2089828;28;20058;-70
2023/09/27 00:34:21;;;;;;;30.75;23.83;;;15.00;99.90;;;;;;2086088;28;20029;-70
2023/09/27 00:35:22;;;;;;;31.35;22.90;;;15.00;99.90;;;;;;2092151;28;20029;-70
2023/09/27 00:36:23;;;;;;;32.15;22.85;;;15.00;99.90;;;;;;2085956;28;20112;-70
2023/09/27 00:37:24;;;;;;;31.75;22.80;;;15.00;99.90;;;;;;2088660;28;20569;-70
2023/09/27 00:38:25;;;;;;;29.80;23.20;;;15.00;99.90;;;;;;2083382;28;20487;-70
2023/09/27 00:39:25;;;;;;;32.45;23.65;;;15.00;99.90;;;;;;2087571;28;20119;-70
2023/09/27 00:40:26;;;;;;;31.48;24.05;;;15.00;99.90;;;;;;2084280;28;20032;-70
2023/09/27 00:41:27;;;;;;;32.58;23.27;;;15.00;99.90;;;;;;2089948;28;20032;-70
2023/09/27 00:42:27;;;;;;;29.58;22.95;;;15.00;99.90;;;;;;2091351;28;20029;-70
2023/09/27 00:43:30;;;;;;;30.13;21.90;;;15.00;99.90;;;;;;2075823;28;20021;-69
2023/09/27 00:44:30;;;;;;;30.45;22.30;;;15.00;99.90;;;;;;2091162;28;20694;-70
2023/09/27 00:45:32;;;;;;;29.20;22.00;;;15.00;99.90;;;;;;2091249;28;20052;-70
2023/09/27 00:46:33;;;;;;;36.08;23.38;;;15.00;99.90;;;;;;2084693;28;20025;-70
2023/09/27 00:47:36;;;;;;;30.15;22.77;;;15.00;99.90;;;;;;2083361;28;20040;-70
2023/09/27 00:48:37;;;;;;;32.88;23.02;;;15.00;99.90;;;;;;2080846;28;20290;-70
2023/09/27 00:49:39;;;;;;;33.15;24.42;;;14.90;99.90;;;;;;2082657;28;20506;-70
2023/09/27 00:50:39;;;;;;;32.65;24.08;;;15.00;99.90;;;;;;2081629;28;20048;-70
2023/09/27 00:51:40;;;;;;;28.55;22.38;;;15.00;99.90;;;;;;2079355;28;20040;-70
2023/09/27 00:52:43;;;;;;;36.17;23.80;;;15.00;99.90;;;;;;2082782;28;20025;-70
2023/09/27 00:53:46;;;;;;;32.20;22.58;;;15.00;99.90;;;;;;2087453;28;20032;-70
2023/09/27 00:54:46;;;;;;;32.38;22.40;;;15.00;99.90;;;;;;2090053;28;20549;-69
2023/09/27 00:55:47;;;;;;;27.98;21.65;;;15.00;99.90;;;;;;2085294;28;20048;-70
2023/09/27 00:56:49;;;;;;;30.23;22.58;;;15.00;99.90;;;;;;2077376;28;20103;-70
2023/09/27 00:57:50;;;;;;;33.15;23.65;;;15.00;99.90;;;;;;2090231;28;20025;-70
2023/09/27 00:58:52;;;;;;;28.48;22.88;;;15.00;99.90;;;;;;2078032;28;20056;-70
2023/09/27 00:59:54;;;;;;;29.15;22.73;;;15.00;99.90;;;;;;2083343;28;20029;-70
2023/09/27 01:00:55;;;;;;;29.02;22.08;;;15.00;99.90;;;;;;2087794;28;20514;-70
2023/09/27 01:01:55;;;;;;;28.13;22.25;;;14.90;99.90;;;;;;2083423;28;20563;-70
2023/09/27 01:02:57;;;;;;;30.13;22.67;;;14.90;99.90;;;;;;2088993;28;20028;-70
2023/09/27 01:03:58;;;;;;;31.15;23.58;;;14.90;99.90;;;;;;2090799;28;20226;-71
2023/09/27 01:04:58;;;;;;;29.88;23.23;;;14.90;99.90;;;;;;2075299;28;20025;-70
2023/09/27 01:05:59;;;;;;;30.05;22.48;;;14.90;99.90;;;;;;2077862;28;20070;-71
2023/09/27 01:07:00;;;;;;;32.97;23.42;;;14.90;99.90;;;;;;2099596;28;20433;-70
2023/09/27 01:08:01;;;;;;;33.00;23.17;;;14.80;99.90;;;;;;2086064;28;20017;-70
2023/09/27 01:09:03;;;;;;;29.15;22.90;;;14.80;99.90;;;;;;2091168;28;20025;-70
2023/09/27 01:10:04;;;;;;;30.67;22.92;;;14.80;99.90;;;;;;2089791;28;20032;-70
2023/09/27 01:11:05;;;;;;;28.15;21.92;;;14.80;99.90;;;;;;2091011;28;20089;-70
2023/09/27 01:12:07;;;;;;;31.25;24.25;;;14.80;99.90;;;;;;2088162;28;20033;-70
2023/09/27 01:13:08;;;;;;;29.95;23.50;;;14.80;99.90;;;;;;2084408;28;20100;-70
2023/09/27 01:14:09;;;;;;;33.00;23.70;;;14.80;99.90;;;;;;2085137;28;20047;-70
2023/09/27 01:15:10;;;;;;;31.85;23.88;;;14.80;99.90;;;;;;2085609;28;20507;-70
2023/09/27 01:16:10;;;;;;;30.27;23.00;;;14.80;99.90;;;;;;2074485;28;20041;-70
2023/09/27 01:17:13;;;;;;;30.38;23.25;;;14.80;99.90;;;;;;2087034;28;20059;-70
2023/09/27 01:18:14;;;;;;;29.38;22.85;;;14.80;99.90;;;;;;2091722;28;20031;-70
2023/09/27 01:19:14;;;;;;;30.17;23.13;;;14.80;99.90;;;;;;2090958;28;20498;-70
2023/09/27 01:20:15;;;;;;;30.20;23.17;;;14.80;99.90;;;;;;2089743;28;20499;-70
2023/09/27 01:21:19;;;;;;;30.42;23.77;;;14.80;99.90;;;;;;2086889;28;20032;-70
2023/09/27 01:22:19;;;;;;;28.15;22.23;;;14.80;99.90;;;;;;2084853;28;20036;-70
2023/09/27 01:23:21;;;;;;;28.38;22.85;;;14.80;99.90;;;;;;2087614;28;20028;-70
2023/09/27 01:24:21;;;;;;;28.83;22.73;;;14.80;99.90;;;;;;2079603;28;20495;-70
2023/09/27 01:25:26;;;;;;;29.65;22.60;;;14.80;99.90;;;;;;2078627;28;20064;-70
2023/09/27 01:26:28;;;;;;;30.35;22.92;;;14.80;99.90;;;;;;2080775;28;20072;-70
2023/09/27 01:27:29;;;;;;;30.65;22.67;;;14.80;99.90;;;;;;2080962;28;20454;-70
2023/09/27 01:28:31;;;;;;;31.48;22.52;;;14.80;99.90;;;;;;2088225;28;20036;-70
2023/09/27 01:29:32;;;;;;;27.60;22.40;;;14.80;99.90;;;;;;2099404;28;20044;-70
2023/09/27 01:30:33;;;;;;;29.83;22.65;;;14.70;99.90;;;;;;2090699;28;20032;-70
2023/09/27 01:31:35;;;;;;;32.53;22.33;;;14.80;99.90;;;;;;2077761;28;20137;-72
2023/09/27 01:32:36;;;;;;;29.48;22.08;;;14.70;99.90;;;;;;2090021;28;20036;-71
2023/09/27 01:33:37;;;;;;;31.00;22.67;;;14.70;99.90;;;;;;2083325;28;20021;-70
2023/09/27 01:34:37;;;;;;;28.23;21.67;;;14.70;99.90;;;;;;2087457;28;20044;-70
2023/09/27 01:35:43;;;;;;;30.90;21.67;;;14.70;99.90;;;;;;2088550;28;20067;-70
2023/09/27 01:36:44;;;;;;;30.02;21.60;;;14.80;99.90;;;;;;2088017;28;20021;-72
2023/09/27 01:37:45;;;;;;;30.38;22.27;;;14.80;99.90;;;;;;2076330;28;20029;-71
2023/09/27 01:38:45;;;;;;;28.00;21.00;;;14.80;99.90;;;;;;2081596;28;20428;-70
2023/09/27 01:39:46;;;;;;;28.98;21.58;;;14.80;99.90;;;;;;2090481;28;20399;-70
2023/09/27 01:40:46;;;;;;;27.13;21.85;;;14.70;99.90;;;;;;2099189;28;20103;-70
2023/09/27 01:41:47;;;;;;;29.35;21.13;;;14.70;99.90;;;;;;2090905;28;20027;-71
2023/09/27 01:42:48;;;;;;;28.55;22.00;;;14.80;99.90;;;;;;2082710;28;20036;-70
2023/09/27 01:43:48;;;;;;;28.48;21.67;;;14.70;99.90;;;;;;2089323;28;20024;-70
2023/09/27 01:44:49;;;;;;;28.38;22.52;;;14.70;99.90;;;;;;2090838;28;20028;-70
2023/09/27 01:45:50;;;;;;;31.10;22.05;;;14.70;99.90;;;;;;2087638;28;20021;-70
2023/09/27 01:46:50;;;;;;;31.52;22.30;;;14.70;99.90;;;;;;2087048;28;20079;-70
2023/09/27 01:47:51;;;;;;;29.55;22.23;;;14.70;99.90;;;;;;2076641;28;20111;-73
2023/09/27 01:48:52;;;;;;;28.38;20.75;;;14.70;99.90;;;;;;2078658;28;20511;-71
2023/09/27 01:49:52;;;;;;;29.55;22.45;;;14.60;99.90;;;;;;2081122;28;20064;-71
2023/09/27 01:50:53;;;;;;;31.38;26.13;;;14.60;99.90;;;;;;2086672;28;20025;-71
2023/09/27 01:51:54;;;;;;;38.05;28.73;;;14.70;99.90;;;;;;2077926;28;20055;-71
2023/09/27 01:52:56;;;;;;;34.58;25.80;;;14.60;99.90;;;;;;2086948;28;20024;-71
2023/09/27 01:53:57;;;;;;;31.50;23.63;;;14.60;99.90;;;;;;2079990;28;20897;-71
2023/09/27 01:54:57;;;;;;;30.95;22.42;;;14.60;99.90;;;;;;2089389;28;20032;-70
2023/09/27 01:55:58;;;;;;;27.98;21.55;;;14.60;99.90;;;;;;2090682;28;20028;-69
2023/09/27 01:56:58;;;;;;;28.55;21.25;;;14.60;99.90;;;;;;2087496;28;20068;-69
2023/09/27 01:58:00;;;;;;;30.45;22.50;;;14.70;99.90;;;;;;2089372;28;20115;-69
2023/09/27 01:59:01;;;;;;;29.33;21.90;;;14.60;99.90;;;;;;2078064;28;20078;-69
2023/09/27 02:00:05;;;;;;;27.98;21.17;;;14.60;99.90;;;;;;2076338;28;20029;-72
2023/09/27 02:01:12;;;;;;;25.10;21.17;;;14.60;99.90;;;;;;2084079;28;20044;-70
2023/09/27 02:02:13;;;;;;;33.65;22.05;;;14.60;99.90;;;;;;2086194;28;20512;-71
2023/09/27 02:03:13;;;;;;;28.52;21.55;;;14.60;99.90;;;;;;2089785;28;20036;-70
2023/09/27 02:04:14;;;;;;;28.13;21.30;;;14.60;99.90;;;;;;2076322;28;20531;-70
2023/09/27 02:05:16;;;;;;;27.67;22.20;;;14.60;99.90;;;;;;2084233;28;20048;-71
2023/09/27 02:06:16;;;;;;;31.92;21.40;;;14.50;99.90;;;;;;2080125;28;20412;-70
2023/09/27 02:07:17;;;;;;;29.58;22.77;;;14.50;99.90;;;;;;2071711;28;20034;-70
2023/09/27 02:08:17;;;;;;;27.20;22.27;;;14.40;99.90;;;;;;2078751;28;20597;-70
2023/09/27 02:09:18;;;;;;;28.15;21.52;;;14.40;99.90;;;;;;2085325;28;20411;-70
2023/09/27 02:10:18;;;;;;;29.70;21.55;;;14.40;99.90;;;;;;2084979;28;20043;-70
2023/09/27 02:11:25;;;;;;;29.42;22.23;;;14.40;99.90;;;;;;2090837;28;20033;-71
2023/09/27 02:12:25;;;;;;;27.75;21.35;;;14.40;99.90;;;;;;2084918;28;20027;-71
2023/09/27 02:13:26;;;;;;;29.63;21.60;;;14.40;99.90;;;;;;2089684;28;20032;-71
2023/09/27 02:14:27;;;;;;;29.58;22.25;;;14.40;99.90;;;;;;2090544;28;20465;-71
2023/09/27 02:15:28;;;;;;;28.75;21.50;;;14.40;99.90;;;;;;2090951;28;20198;-70
2023/09/27 02:16:30;;;;;;;30.23;22.13;;;14.30;99.90;;;;;;2090590;28;20395;-71
2023/09/27 02:17:32;;;;;;;30.85;21.98;;;14.30;99.90;;;;;;2086426;28;20023;-70
2023/09/27 02:18:32;;;;;;;31.73;22.95;;;14.30;99.90;;;;;;2079917;28;20063;-70
2023/09/27 02:19:33;;;;;;;31.52;22.70;;;14.30;99.90;;;;;;2081688;28;20060;-70
2023/09/27 02:20:34;;;;;;;28.58;22.70;;;14.30;99.90;;;;;;2087541;28;20240;-70
2023/09/27 02:21:34;;;;;;;32.15;23.52;;;14.30;99.90;;;;;;2086183;28;20025;-69
2023/09/27 02:22:35;;;;;;;29.52;22.35;;;14.30;99.90;;;;;;2083053;28;20025;-69
2023/09/27 02:23:35;;;;;;;29.52;22.08;;;14.30;99.90;;;;;;2085788;28;20024;-72
2023/09/27 02:24:37;;;;;;;30.55;22.10;;;14.30;99.90;;;;;;2085356;28;20025;-71
2023/09/27 02:25:39;;;;;;;28.52;22.15;;;14.20;99.90;;;;;;2091087;28;20029;-71
2023/09/27 02:26:40;;;;;;;30.23;22.25;;;14.20;99.90;;;;;;2091305;28;20048;-72
2023/09/27 02:27:42;;;;;;;34.20;22.35;;;14.20;99.90;;;;;;2088447;28;20384;-72
2023/09/27 02:28:43;;;;;;;30.42;22.45;;;14.20;99.90;;;;;;2081555;28;20307;-72
2023/09/27 02:29:43;;;;;;;31.10;22.30;;;14.20;99.90;;;;;;2078070;28;20499;-72
2023/09/27 02:30:44;;;;;;;29.50;22.10;;;14.20;99.90;;;;;;2083069;28;20083;-71
2023/09/27 02:31:45;;;;;;;31.80;23.35;;;14.20;99.90;;;;;;2086523;28;20291;-71
2023/09/27 02:32:45;;;;;;;29.27;22.50;;;14.20;99.90;;;;;;2091263;28;20041;-71
2023/09/27 02:33:46;;;;;;;32.42;23.77;;;14.20;99.90;;;;;;2090475;28;20062;-71
2023/09/27 02:34:47;;;;;;;36.50;23.38;;;14.20;99.90;;;;;;2086148;28;20041;-72
2023/09/27 02:35:47;;;;;;;30.40;22.73;;;14.20;99.90;;;;;;2090540;28;20052;-72
2023/09/27 02:36:48;;;;;;;29.52;22.00;;;14.20;99.90;;;;;;2091146;28;20031;-71
2023/09/27 02:37:49;;;;;;;30.83;21.95;;;14.20;99.90;;;;;;2091166;28;20493;-71
2023/09/27 02:38:50;;;;;;;30.95;22.60;;;14.20;99.90;;;;;;2082573;28;20029;-71
2023/09/27 02:39:50;;;;;;;28.25;21.58;;;14.20;99.90;;;;;;2072657;28;20107;-69
2023/09/27 02:40:51;;;;;;;28.00;21.98;;;14.20;99.90;;;;;;2077421;28;20029;-70
2023/09/27 02:41:51;;;;;;;30.75;22.75;;;14.20;99.90;;;;;;2091300;28;20060;-72
2023/09/27 02:42:52;;;;;;;31.15;22.88;;;14.20;99.90;;;;;;2090603;28;20024;-70
2023/09/27 02:43:52;;;;;;;28.02;22.17;;;14.20;99.90;;;;;;2088843;28;20554;-70
2023/09/27 02:44:53;;;;;;;27.50;21.75;;;14.20;99.90;;;;;;2074072;28;20408;-71
2023/09/27 02:45:54;;;;;;;30.77;22.83;;;14.20;99.90;;;;;;2086313;28;20477;-70
2023/09/27 02:46:58;;;;;;;31.02;22.10;;;14.20;99.90;;;;;;2088609;28;20032;-71
2023/09/27 02:47:59;;;;;;;32.47;22.70;;;14.10;99.90;;;;;;2085676;28;20528;-72
2023/09/27 02:49:01;;;;;;;30.13;22.35;;;14.10;99.90;;;;;;2082140;28;20044;-70
2023/09/27 02:50:04;;;;;;;31.35;22.42;;;14.10;99.90;;;;;;2077915;28;20110;-70
2023/09/27 02:51:05;;;;;;;32.92;21.95;;;14.10;99.90;;;;;;2078886;28;20104;-70
2023/09/27 02:52:06;;;;;;;31.00;22.13;;;14.10;99.90;;;;;;2085770;28;20036;-71
2023/09/27 02:53:08;;;;;;;29.45;22.00;;;14.10;99.90;;;;;;2089856;28;20016;-70
2023/09/27 02:54:10;;;;;;;31.58;22.02;;;14.10;99.90;;;;;;2090738;28;20114;-70
2023/09/27 02:55:11;;;;;;;29.02;21.45;;;14.10;99.90;;;;;;2091033;28;20107;-70
2023/09/27 02:56:13;;;;;;;27.23;21.35;;;14.10;99.90;;;;;;2091346;28;20040;-71
2023/09/27 02:57:14;;;;;;;27.85;21.83;;;14.10;99.90;;;;;;2081291;28;20013;-71
2023/09/27 02:58:15;;;;;;;29.30;21.83;;;14.10;99.90;;;;;;2066339;28;20076;-70
2023/09/27 02:59:16;;;;;;;29.27;21.55;;;14.10;99.90;;;;;;2071661;28;20029;-70
2023/09/27 03:00:20;;;;;;;29.17;21.95;;;14.10;99.90;;;;;;2077473;28;20151;-71
2023/09/27 03:01:21;;;;;;;30.35;22.08;;;14.10;99.90;;;;;;2070149;28;20032;-71
2023/09/27 03:02:23;;;;;;;27.88;21.58;;;14.10;99.90;;;;;;2075006;28;20049;-70
2023/09/27 03:03:24;;;;;;;28.95;22.60;;;14.10;99.90;;;;;;2092203;28;20032;-70
2023/09/27 03:04:27;;;;;;;29.23;22.40;;;14.00;99.90;;;;;;2092052;28;20024;-70
2023/09/27 03:05:28;;;;;;;31.42;21.77;;;14.00;99.90;;;;;;2087804;28;20590;-71
2023/09/27 03:06:29;;;;;;;30.17;21.60;;;14.10;99.90;;;;;;2092034;28;20020;-70
2023/09/27 03:07:30;;;;;;;28.10;22.05;;;14.00;99.90;;;;;;2085352;28;20609;-70
2023/09/27 03:08:30;;;;;;;30.30;22.50;;;14.00;99.90;;;;;;2088039;28;20025;-70
2023/09/27 03:09:31;;;;;;;32.35;22.70;;;14.00;99.90;;;;;;2091827;28;20098;-70
2023/09/27 03:10:35;;;;;;;28.38;21.70;;;14.10;99.90;;;;;;2093787;28;20042;-71
2023/09/27 03:11:36;;;;;;;31.45;21.60;;;14.00;99.90;;;;;;2088251;28;20089;-70
2023/09/27 03:12:38;;;;;;;30.02;22.40;;;14.00;99.90;;;;;;2068492;28;20136;-70
2023/09/27 03:13:40;;;;;;;28.67;21.65;;;14.00;99.90;;;;;;2076013;28;20025;-71
2023/09/27 03:14:41;;;;;;;31.33;22.33;;;14.00;99.90;;;;;;2080200;28;20131;-71
2023/09/27 03:15:44;;;;;;;30.88;21.67;;;14.00;99.90;;;;;;2088928;28;20032;-70
2023/09/27 03:16:44;;;;;;;31.02;22.55;;;14.00;99.90;;;;;;2089967;28;20040;-70
2023/09/27 03:17:47;;;;;;;30.83;22.27;;;14.00;99.90;;;;;;2075345;28;20014;-72
2023/09/27 03:18:47;;;;;;;30.63;21.50;;;14.00;99.90;;;;;;2077648;28;20231;-70
2023/09/27 03:19:48;;;;;;;30.35;21.35;;;14.00;99.90;;;;;;2088005;28;20488;-69
2023/09/27 03:20:51;;;;;;;31.30;21.73;;;14.00;99.90;;;;;;2077062;28;20170;-70
2023/09/27 03:21:52;;;;;;;31.13;22.00;;;14.00;99.90;;;;;;2081231;28;20017;-70
2023/09/27 03:22:52;;;;;;;30.35;22.45;;;14.00;99.90;;;;;;2086989;28;20047;-71
2023/09/27 03:23:56;;;;;;;30.00;22.23;;;14.00;99.90;;;;;;2077384;28;20022;-71
2023/09/27 03:24:57;;;;;;;32.35;21.85;;;14.00;99.90;;;;;;2079994;28;20253;-71
2023/09/27 03:25:57;;;;;;;32.20;23.30;;;14.00;99.90;;;;;;2082734;28;20060;-71
2023/09/27 03:26:58;;;;;;;28.10;21.20;;;14.00;99.90;;;;;;2089603;28;20036;-71
2023/09/27 03:27:58;;;;;;;31.35;21.92;;;14.00;99.90;;;;;;2086151;28;20556;-72
2023/09/27 03:29:00;;;;;;;28.80;22.17;;;14.00;99.90;;;;;;2084069;28;20393;-71
2023/09/27 03:30:03;;;;;;;29.58;21.98;;;14.00;99.90;;;;;;2083690;28;20024;-70
2023/09/27 03:31:07;;;;;;;27.70;21.85;;;14.00;99.90;;;;;;2087921;28;20024;-70
2023/09/27 03:32:08;;;;;;;27.63;21.77;;;14.00;99.90;;;;;;2083774;28;20398;-69
2023/09/27 03:33:09;;;;;;;29.15;21.58;;;14.00;99.90;;;;;;2074582;28;20512;-70
2023/09/27 03:34:09;;;;;;;31.85;21.85;;;14.00;99.90;;;;;;2092153;28;20111;-70
2023/09/27 03:35:11;;;;;;;31.00;22.80;;;14.00;99.90;;;;;;2091774;28;20020;-70
2023/09/27 03:36:13;;;;;;;31.35;23.10;;;14.00;99.90;;;;;;2091969;28;20028;-71
2023/09/27 03:37:14;;;;;;;29.55;23.52;;;14.00;99.90;;;;;;2087736;28;20029;-70
2023/09/27 03:38:15;;;;;;;28.40;22.17;;;14.00;99.90;;;;;;2092028;28;20514;-70
2023/09/27 03:39:22;;;;;;;29.90;23.23;;;14.00;99.90;;;;;;2087219;28;20033;-70
2023/09/27 03:40:23;;;;;;;31.80;22.77;;;14.00;99.90;;;;;;2078186;28;20084;-71
2023/09/27 03:41:24;;;;;;;28.85;21.65;;;14.00;99.90;;;;;;2082763;28;20464;-71
2023/09/27 03:42:26;;;;;;;29.70;22.00;;;14.00;99.90;;;;;;2092206;28;20020;-71
2023/09/27 03:43:27;;;;;;;30.48;22.38;;;14.00;99.90;;;;;;2089233;28;20033;-71
2023/09/27 03:44:28;;;;;;;30.55;22.70;;;14.10;99.90;;;;;;2083684;28;20028;-71
2023/09/27 03:45:30;;;;;;;28.83;22.05;;;14.10;99.90;;;;;;2083769;28;20423;-71
2023/09/27 03:46:34;;;;;;;31.10;22.13;;;14.10;99.90;;;;;;2088666;28;20033;-71
2023/09/27 03:47:35;;;;;;;35.42;22.95;;;14.10;99.90;;;;;;2082309;28;20120;-71
2023/09/27 03:48:36;;;;;;;30.77;22.33;;;14.10;99.90;;;;;;2083715;28;20029;-70
2023/09/27 03:49:38;;;;;;;28.95;21.65;;;14.10;99.90;;;;;;2081574;28;20025;-70
2023/09/27 03:50:39;;;;;;;27.15;21.60;;;14.10;99.90;;;;;;2079251;28;20461;-70
2023/09/27 03:51:39;;;;;;;28.73;22.05;;;14.10;99.90;;;;;;2092069;28;20016;-71
2023/09/27 03:52:41;;;;;;;30.25;21.73;;;14.10;99.90;;;;;;2087954;28;20191;-71
2023/09/27 03:53:42;;;;;;;30.95;21.58;;;14.10;99.90;;;;;;2087119;28;20031;-70
2023/09/27 03:54:42;;;;;;;29.45;22.48;;;14.10;99.90;;;;;;2075729;28;20044;-71
2023/09/27 03:55:43;;;;;;;32.50;22.90;;;14.00;99.90;;;;;;2080150;28;20108;-70
2023/09/27 03:56:44;;;;;;;29.98;22.42;;;14.00;99.90;;;;;;2079471;28;20033;-72
2023/09/27 03:57:44;;;;;;;32.20;22.65;;;14.00;99.90;;;;;;2091927;28;20021;-72
2023/09/27 03:58:45;;;;;;;33.63;23.70;;;14.00;99.90;;;;;;2091596;28;20020;-77
2023/09/27 03:59:46;;;;;;;27.63;21.40;;;14.00;99.90;;;;;;2081510;28;20036;-77
2023/09/27 04:00:46;;;;;;;30.50;22.38;;;14.00;99.90;;;;;;2083319;28;20033;-76
2023/09/27 04:01:47;;;;;;;29.30;22.15;;;14.00;99.90;;;;;;2082344;28;20033;-76
2023/09/27 04:02:48;;;;;;;29.05;21.88;;;14.00;99.90;;;;;;2079998;28;20512;-77
2023/09/27 04:03:48;;;;;;;30.33;22.85;;;13.90;99.90;;;;;;2087381;28;20088;-77
2023/09/27 04:04:49;;;;;;;30.48;22.10;;;13.90;99.90;;;;;;2091615;28;20416;-77
2023/09/27 04:05:49;;;;;;;32.00;22.60;;;13.90;99.90;;;;;;2087844;28;20064;-77
2023/09/27 04:06:50;;;;;;;28.85;21.98;;;13.90;99.90;;;;;;2091895;28;20033;-77
2023/09/27 04:07:51;;;;;;;29.17;21.73;;;13.90;99.90;;;;;;2092163;28;20082;-80
2023/09/27 04:08:52;;;;;;;29.13;22.17;;;13.90;99.90;;;;;;2085611;28;20025;-80
2023/09/27 04:09:53;;;;;;;28.30;21.92;;;13.90;99.90;;;;;;2083572;28;20193;-81
2023/09/27 04:10:53;;;;;;;28.02;22.23;;;13.90;99.90;;;;;;2089473;28;20115;-78
2023/09/27 04:11:55;;;;;;;29.42;22.13;;;13.90;99.90;;;;;;2084575;28;20056;-78
2023/09/27 04:12:56;;;;;;;30.77;21.65;;;13.90;99.90;;;;;;2089087;28;20024;-77
2023/09/27 04:13:56;;;;;;;26.90;21.40;;;13.80;99.90;;;;;;2087722;28;20028;-76
2023/09/27 04:14:57;;;;;;;31.42;22.42;;;13.90;99.90;;;;;;2086435;28;20063;-77
2023/09/27 04:15:58;;;;;;;30.80;22.70;;;13.90;99.90;;;;;;2090618;28;20082;-77
2023/09/27 04:17:01;;;;;;;30.05;22.90;;;13.90;99.90;;;;;;2087232;28;20522;-77
2023/09/27 04:18:02;;;;;;;30.45;22.80;;;13.90;99.90;;;;;;2084770;28;20033;-77
2023/09/27 04:19:03;;;;;;;30.40;22.38;;;13.90;99.90;;;;;;2081339;28;20503;-77
2023/09/27 04:20:14;;;;;;;29.95;21.85;;;13.80;99.90;;;;;;2082378;28;20061;-77
2023/09/27 04:21:14;;;;;;;33.10;22.73;;;13.80;99.90;;;;;;2080021;28;20037;-76
2023/09/27 04:22:15;;;;;;;32.30;22.50;;;13.80;99.90;;;;;;2083365;28;20116;-77
2023/09/27 04:23:15;;;;;;;31.88;23.60;;;13.80;99.90;;;;;;2088174;28;20035;-75
2023/09/27 04:24:16;;;;;;;35.22;23.10;;;13.80;99.90;;;;;;2084909;28;20029;-77
2023/09/27 04:25:18;;;;;;;30.92;22.52;;;13.80;99.90;;;;;;2078855;28;20136;-78
2023/09/27 04:26:18;;;;;;;33.60;23.30;;;13.80;99.90;;;;;;2075569;28;20549;-78
2023/09/27 04:27:19;;;;;;;29.10;22.58;;;13.80;99.90;;;;;;2082618;28;20083;-77
2023/09/27 04:28:19;;;;;;;33.17;22.58;;;13.90;99.90;;;;;;2088791;28;20538;-77
2023/09/27 04:29:20;;;;;;;30.40;22.63;;;13.90;99.90;;;;;;2095002;28;20263;-78
2023/09/27 04:30:22;;;;;;;30.08;23.20;;;13.90;99.90;;;;;;2095838;28;20358;-77
2023/09/27 04:31:23;;;;;;;28.77;21.83;;;13.90;99.90;;;;;;2098045;28;20028;-77
2023/09/27 04:32:25;;;;;;;29.10;21.98;;;13.90;99.90;;;;;;2090310;28;20047;-77
2023/09/27 04:33:26;;;;;;;29.60;21.75;;;13.90;99.90;;;;;;2087744;28;20094;-78
2023/09/27 04:34:26;;;;;;;29.83;22.55;;;13.90;99.90;;;;;;2085659;28;20037;-77
2023/09/27 04:35:27;;;;;;;28.48;21.88;;;13.90;99.90;;;;;;2092465;28;20032;-77
2023/09/27 04:36:27;;;;;;;26.52;21.63;;;13.90;99.90;;;;;;2092578;28;20495;-79
2023/09/27 04:37:28;;;;;;;30.08;21.55;;;13.90;99.90;;;;;;2086395;28;20029;-79
2023/09/27 04:38:28;;;;;;;28.40;22.20;;;13.80;99.90;;;;;;2088747;28;20217;-80
2023/09/27 04:39:31;;;;;;;29.95;22.55;;;13.80;99.90;;;;;;2087914;28;20036;-78
2023/09/27 04:40:31;;;;;;;30.73;22.77;;;13.80;99.90;;;;;;2088926;28;25200;-79
2023/09/27 04:41:32;;;;;;;32.03;23.17;;;13.80;99.90;;;;;;2083465;28;20029;-77
2023/09/27 04:42:32;;;;;;;30.92;22.27;;;13.80;99.90;;;;;;2091832;28;20029;-77
2023/09/27 04:43:33;;;;;;;32.80;22.00;;;13.80;99.90;;;;;;2085624;28;20111;-78
2023/09/27 04:44:34;;;;;;;28.02;21.45;;;13.80;99.90;;;;;;2090958;28;20110;-78
2023/09/27 04:45:34;;;;;;;30.35;21.83;;;13.80;99.90;;;;;;2092059;28;20858;-79
2023/09/27 04:46:35;;;;;;;31.27;23.13;;;13.80;99.90;;;;;;2086056;28;20163;-78
2023/09/27 04:47:36;;;;;;;28.80;21.83;;;13.80;99.90;;;;;;2090814;28;20029;-78
2023/09/27 04:48:36;;;;;;;32.00;22.05;;;13.80;99.90;;;;;;2088052;28;20039;-78
2023/09/27 04:49:37;;;;;;;31.10;21.45;;;13.80;99.90;;;;;;2089781;28;20017;-78
2023/09/27 04:50:39;;;;;;;27.55;21.83;;;13.80;99.90;;;;;;2091435;28;20558;-78
2023/09/27 04:51:40;;;;;;;29.25;22.05;;;13.80;99.90;;;;;;2091852;28;20062;-78
2023/09/27 04:52:41;;;;;;;32.33;22.48;;;13.80;99.90;;;;;;2088668;28;20025;-78
2023/09/27 04:53:42;;;;;;;30.45;22.30;;;13.80;99.90;;;;;;2083772;28;20020;-77
2023/09/27 04:54:43;;;;;;;30.33;21.98;;;13.80;99.90;;;;;;2090831;28;20032;-78
2023/09/27 04:55:43;;;;;;;30.23;22.30;;;13.80;99.90;;;;;;2087549;28;20535;-78
2023/09/27 04:56:44;;;;;;;30.08;22.15;;;13.80;99.90;;;;;;2091059;28;20113;-77
2023/09/27 04:57:45;;;;;;;31.50;22.52;;;13.80;99.90;;;;;;2090998;28;20024;-76
2023/09/27 04:58:46;;;;;;;31.67;23.10;;;13.80;99.90;;;;;;2079009;28;20061;-78
2023/09/27 04:59:46;;;;;;;32.28;23.05;;;13.80;99.90;;;;;;2076057;28;20108;-77
2023/09/27 05:00:47;;;;;;;34.25;23.10;;;13.80;99.90;;;;;;2075746;28;20068;-77
2023/09/27 05:01:47;;;;;;;29.63;23.08;;;13.80;99.90;;;;;;2091285;28;20229;-77
2023/09/27 05:02:50;;;;;;;32.90;22.13;;;13.80;99.90;;;;;;2091135;28;20438;-78
2023/09/27 05:03:52;;;;;;;33.30;22.95;;;13.80;99.90;;;;;;2090450;28;20028;-78
2023/09/27 05:04:52;;;;;;;30.85;22.88;;;13.80;99.90;;;;;;2074543;28;20032;-78
2023/09/27 05:05:53;;;;;;;30.00;22.00;;;13.80;99.90;;;;;;2078908;28;20060;-77
2023/09/27 05:06:53;;;;;;;30.15;22.77;;;13.80;99.90;;;;;;2084878;28;20472;-77
2023/09/27 05:07:54;;;;;;;36.85;23.38;;;13.80;99.90;;;;;;2085500;28;20021;-78
2023/09/27 05:08:54;;;;;;;36.28;22.42;;;13.80;99.90;;;;;;2078160;28;20564;-79
2023/09/27 05:09:55;;;;;;;31.25;23.27;;;13.80;99.90;;;;;;2079048;28;20033;-79
2023/09/27 05:10:56;;;;;;;35.22;22.13;;;13.80;99.90;;;;;;2078666;28;20028;-79